createdAt,value
2022-10-19T00:00:28.881Z,88.02
2022-10-19T00:02:55.270Z,87.67
2022-10-19T00:05:21.629Z,87.99
2022-10-19T00:07:48.029Z,87.91
2022-10-19T00:10:14.391Z,87.64
2022-10-19T00:12:40.836Z,87.62
2022-10-19T00:15:07.715Z,87.63
2022-10-19T00:17:34.927Z,87.58
2022-10-19T00:20:01.637Z,87.46
2022-10-19T00:22:28.017Z,87.43
2022-10-19T00:24:56.703Z,87.28
2022-10-19T00:27:23.105Z,87.44
2022-10-19T00:29:49.487Z,87.55
2022-10-19T00:32:15.868Z,87.73
2022-10-19T00:34:42.268Z,88.12
2022-10-19T00:37:08.623Z,87.63
2022-10-19T00:39:35.006Z,87.41
2022-10-19T00:42:01.364Z,86.90
2022-10-19T00:44:30.792Z,87.23
2022-10-19T00:47:02.000Z,87.26
2022-10-19T00:49:30.507Z,87.38
2022-10-19T00:52:04.524Z,87.49
2022-10-19T00:54:32.776Z,87.58
2022-10-19T00:56:59.678Z,87.54
2022-10-19T00:59:27.378Z,87.16
2022-10-19T01:01:54.325Z,87.42
2022-10-19T01:04:21.896Z,87.16
2022-10-19T01:06:48.302Z,87.49
2022-10-19T01:09:15.566Z,86.94
2022-10-19T01:12:01.843Z,86.90
2022-10-19T01:14:46.917Z,86.85
2022-10-19T01:17:24.334Z,86.83
2022-10-19T01:20:08.184Z,86.67
2022-10-19T01:23:00.489Z,86.95
2022-10-19T01:25:54.555Z,86.89
2022-10-19T01:28:41.675Z,87.30
2022-10-19T01:31:22.011Z,87.22
2022-10-19T01:34:10.775Z,87.23
2022-10-19T01:37:03.192Z,87.14
2022-10-19T01:39:45.338Z,87.53
2022-10-19T01:42:20.291Z,87.47
2022-10-19T01:45:07.000Z,87.69
2022-10-19T01:47:38.974Z,88.13
2022-10-19T01:50:14.771Z,87.49
2022-10-19T01:52:42.078Z,87.74
2022-10-19T01:55:09.832Z,87.67
2022-10-19T01:57:39.809Z,87.55
2022-10-19T02:00:07.577Z,88.07
2022-10-19T02:02:36.679Z,87.96
2022-10-19T02:05:04.552Z,87.73
2022-10-19T02:07:31.516Z,87.90
2022-10-19T02:09:57.918Z,87.57
2022-10-19T02:12:25.062Z,87.52
2022-10-19T02:14:55.216Z,87.58
2022-10-19T02:17:25.385Z,87.37
2022-10-19T02:19:53.337Z,87.57
2022-10-19T02:22:19.771Z,87.22
2022-10-19T02:24:46.139Z,87.10
2022-10-19T02:27:12.606Z,87.07
2022-10-19T02:29:39.548Z,87.41
2022-10-19T02:32:06.587Z,87.32
2022-10-19T02:34:33.166Z,87.47
2022-10-19T02:36:59.553Z,87.16
2022-10-19T02:39:25.934Z,87.00
2022-10-19T02:42:00.476Z,87.00
2022-10-19T02:44:31.649Z,86.88
2022-10-19T02:47:03.391Z,86.69
2022-10-19T02:49:30.612Z,86.87
2022-10-19T02:52:15.151Z,86.86
2022-10-19T02:54:43.364Z,86.78
2022-10-19T02:57:21.372Z,86.92
2022-10-19T02:59:47.986Z,87.36
2022-10-19T03:02:15.625Z,87.06
2022-10-19T03:04:42.754Z,86.79
2022-10-19T03:07:10.535Z,86.90
2022-10-19T03:09:36.932Z,86.88
2022-10-19T03:12:03.593Z,86.77
2022-10-19T03:14:29.952Z,86.90
2022-10-19T03:16:56.325Z,86.90
2022-10-19T03:19:22.839Z,87.17
2022-10-19T03:21:49.224Z,87.07
2022-10-19T03:24:15.699Z,86.70
2022-10-19T03:26:42.088Z,87.12
2022-10-19T03:29:08.640Z,87.18
2022-10-19T03:31:35.317Z,87.03
2022-10-19T03:34:02.075Z,87.10
2022-10-19T03:36:30.810Z,87.16
2022-10-19T03:38:59.515Z,87.38
2022-10-19T03:41:28.122Z,87.36
2022-10-19T03:43:54.702Z,87.49
2022-10-19T03:46:21.443Z,87.18
2022-10-19T03:48:48.309Z,86.83
2022-10-19T03:51:25.910Z,87.03
2022-10-19T03:53:53.898Z,87.26
2022-10-19T03:56:23.029Z,87.36
2022-10-19T03:58:50.104Z,87.00
2022-10-19T04:01:22.336Z,86.98
2022-10-19T04:03:56.815Z,87.16
2022-10-19T04:06:28.768Z,87.10
2022-10-19T04:08:55.169Z,87.17
2022-10-19T04:11:24.480Z,87.09
2022-10-19T04:13:52.065Z,86.92
2022-10-19T04:16:19.408Z,86.92
2022-10-19T04:18:46.390Z,87.35
2022-10-19T04:21:29.782Z,87.38
2022-10-19T04:24:01.988Z,87.03
2022-10-19T04:26:28.568Z,87.10
2022-10-19T04:28:58.200Z,86.86
2022-10-19T04:31:24.856Z,86.88
2022-10-19T04:33:51.221Z,86.86
2022-10-19T04:36:17.586Z,86.78
2022-10-19T04:38:43.951Z,86.43
2022-10-19T04:41:15.912Z,86.50
2022-10-19T04:43:42.406Z,86.79
2022-10-19T04:46:11.309Z,87.00
2022-10-19T04:48:38.785Z,87.02
2022-10-19T04:51:05.881Z,87.23
2022-10-19T04:53:33.111Z,87.42
2022-10-19T04:55:59.608Z,86.99
2022-10-19T04:58:27.243Z,87.22
2022-10-19T05:00:53.768Z,87.08
2022-10-19T05:03:20.253Z,86.79
2022-10-19T05:05:46.610Z,86.99
2022-10-19T05:08:13.036Z,86.75
2022-10-19T05:10:41.213Z,86.78
2022-10-19T05:13:09.364Z,86.92
2022-10-19T05:15:35.828Z,86.99
2022-10-19T05:18:02.248Z,86.78
2022-10-19T05:20:28.690Z,86.66
2022-10-19T05:22:55.169Z,86.76
2022-10-19T05:25:21.562Z,86.78
2022-10-19T05:27:52.486Z,86.90
2022-10-19T05:30:21.789Z,87.11
2022-10-19T05:32:48.771Z,87.33
2022-10-19T05:35:17.538Z,87.21
2022-10-19T05:37:46.456Z,87.48
2022-10-19T05:40:12.825Z,87.64
2022-10-19T05:42:39.428Z,87.41
2022-10-19T05:45:06.236Z,87.57
2022-10-19T05:47:34.249Z,87.31
2022-10-19T05:50:00.786Z,87.46
2022-10-19T05:52:27.754Z,87.32
2022-10-19T05:54:54.132Z,87.35
2022-10-19T05:57:20.566Z,87.89
2022-10-19T05:59:47.000Z,87.87
2022-10-19T06:02:14.072Z,87.72
2022-10-19T06:04:40.483Z,87.63
2022-10-19T06:07:06.997Z,88.11
2022-10-19T06:09:36.152Z,88.24
2022-10-19T06:12:03.671Z,87.68
2022-10-19T06:14:30.300Z,88.02
2022-10-19T06:16:56.834Z,87.79
2022-10-19T06:19:23.230Z,88.09
2022-10-19T06:21:49.632Z,87.90
2022-10-19T06:24:16.036Z,87.85
2022-10-19T06:26:42.633Z,87.76
2022-10-19T06:29:09.887Z,87.63
2022-10-19T06:31:36.614Z,87.84
2022-10-19T06:34:03.416Z,87.96
2022-10-19T06:36:30.901Z,88.25
2022-10-19T06:38:57.345Z,88.35
2022-10-19T06:41:24.012Z,88.10
2022-10-19T06:43:51.876Z,87.98
2022-10-19T06:46:23.280Z,88.41
2022-10-19T06:48:57.254Z,88.40
2022-10-19T06:51:25.474Z,88.03
2022-10-19T06:53:56.668Z,87.67
2022-10-19T06:56:27.000Z,87.84
2022-10-19T06:58:54.499Z,87.80
2022-10-19T07:01:21.578Z,88.07
2022-10-19T07:03:48.168Z,87.61
2022-10-19T07:06:14.682Z,87.86
2022-10-19T07:08:42.249Z,87.90
2022-10-19T07:11:12.972Z,87.90
2022-10-19T07:13:39.471Z,87.94
2022-10-19T07:16:08.355Z,88.22
2022-10-19T07:18:35.902Z,87.89
2022-10-19T07:21:04.857Z,87.97
2022-10-19T07:23:32.542Z,88.21
2022-10-19T07:26:04.940Z,88.16
2022-10-19T07:28:33.400Z,88.18
2022-10-19T07:31:05.084Z,87.66
2022-10-19T07:33:31.481Z,87.67
2022-10-19T07:36:07.296Z,87.96
2022-10-19T07:38:34.468Z,87.94
2022-10-19T07:41:08.694Z,88.32
2022-10-19T07:43:35.672Z,88.63
2022-10-19T07:46:07.078Z,88.49
2022-10-19T07:48:34.352Z,88.67
2022-10-19T07:51:02.264Z,88.56
2022-10-19T07:53:28.800Z,89.48
2022-10-19T07:55:55.421Z,89.69
2022-10-19T07:58:22.012Z,90.07
2022-10-19T08:00:48.441Z,90.06
2022-10-19T08:06:06.835Z,89.35
2022-10-19T08:08:33.956Z,89.57
2022-10-19T08:11:18.271Z,89.46
2022-10-19T08:13:44.776Z,89.49
2022-10-19T08:16:39.314Z,89.45
2022-10-19T08:19:14.061Z,89.52
2022-10-19T08:21:44.015Z,89.70
2022-10-19T08:24:10.661Z,90.39
2022-10-19T08:26:38.911Z,90.49
2022-10-19T08:29:12.648Z,90.04
2022-10-19T08:31:39.193Z,90.16
2022-10-19T08:34:06.140Z,89.50
2022-10-19T08:36:32.692Z,88.99
2022-10-19T08:38:59.138Z,88.45
2022-10-19T08:41:41.150Z,87.95
2022-10-19T08:44:31.738Z,88.12
2022-10-19T08:46:58.064Z,88.14
2022-10-19T08:49:26.149Z,87.80
2022-10-19T08:52:08.539Z,86.88
2022-10-19T08:54:48.816Z,86.26
2022-10-19T08:57:18.155Z,85.20
2022-10-19T09:00:06.812Z,83.78
2022-10-19T09:03:04.367Z,82.69
2022-10-19T09:06:14.902Z,82.02
2022-10-19T09:08:41.439Z,81.86
2022-10-19T09:11:10.621Z,80.77
2022-10-19T09:14:04.365Z,79.78
2022-10-19T09:16:31.525Z,78.86
2022-10-19T09:18:57.931Z,78.48
2022-10-19T09:21:45.930Z,75.64
2022-10-19T09:24:35.185Z,76.00
2022-10-19T09:27:02.404Z,75.94
2022-10-19T09:29:39.130Z,75.08
2022-10-19T09:32:12.408Z,74.34
2022-10-19T09:34:44.500Z,74.13
2022-10-19T09:37:18.889Z,73.03
2022-10-19T09:39:54.041Z,72.52
2022-10-19T09:42:30.132Z,71.19
2022-10-19T09:44:57.252Z,70.61
2022-10-19T09:47:34.623Z,68.56
2022-10-19T09:50:21.180Z,69.99
2022-10-19T09:52:58.635Z,69.01
2022-10-19T09:55:34.919Z,68.90
2022-10-19T09:58:05.007Z,67.00
2022-10-19T10:00:39.702Z,66.99
2022-10-19T10:03:07.590Z,67.32
2022-10-19T10:05:39.186Z,66.16
2022-10-19T10:08:15.297Z,64.25
2022-10-19T10:10:49.096Z,65.20
2022-10-19T10:13:27.506Z,64.70
2022-10-19T10:16:00.402Z,65.94
2022-10-19T10:18:28.084Z,66.04
2022-10-19T10:21:01.159Z,64.86
2022-10-19T10:23:32.042Z,64.96
2022-10-19T10:26:00.092Z,64.91
2022-10-19T10:28:28.454Z,64.78
2022-10-19T10:31:02.083Z,64.03
2022-10-19T10:33:45.878Z,64.14
2022-10-19T10:36:12.623Z,64.96
2022-10-19T10:38:46.051Z,65.38
2022-10-19T10:41:14.760Z,64.29
2022-10-19T10:44:06.725Z,63.12
2022-10-19T10:46:35.859Z,63.98
2022-10-19T10:49:04.724Z,64.81
2022-10-19T10:51:34.003Z,63.99
2022-10-19T10:54:16.841Z,63.08
2022-10-19T10:56:44.346Z,63.48
2022-10-19T10:59:39.446Z,63.23
2022-10-19T11:02:17.163Z,63.93
2022-10-19T11:04:59.116Z,63.45
2022-10-19T11:07:26.884Z,64.44
2022-10-19T11:10:09.973Z,64.34
2022-10-19T11:12:40.568Z,63.96
2022-10-19T11:15:20.915Z,64.45
2022-10-19T11:18:00.954Z,64.01
2022-10-19T11:20:30.281Z,64.18
2022-10-19T11:23:07.543Z,63.73
2022-10-19T11:25:42.977Z,63.67
2022-10-19T11:28:33.261Z,64.07
2022-10-19T11:31:24.698Z,65.08
2022-10-19T11:34:25.244Z,64.70
2022-10-19T11:36:58.255Z,64.56
2022-10-19T11:40:23.129Z,62.88
2022-10-19T11:43:22.395Z,63.82
2022-10-19T11:46:00.485Z,64.09
2022-10-19T11:49:01.108Z,63.43
2022-10-19T11:51:33.518Z,64.97
2022-10-19T11:54:29.354Z,64.47
2022-10-19T11:57:05.512Z,64.31
2022-10-19T11:59:43.380Z,63.55
2022-10-19T12:02:21.963Z,63.22
2022-10-19T12:04:55.499Z,64.29
2022-10-19T12:07:43.706Z,63.70
2022-10-19T12:10:28.238Z,64.02
2022-10-19T12:12:58.898Z,63.72
2022-10-19T12:15:28.485Z,64.38
2022-10-19T12:17:57.459Z,64.13
2022-10-19T12:20:38.983Z,63.64
2022-10-19T12:23:28.046Z,65.22
2022-10-19T12:25:56.601Z,64.01
2022-10-19T12:28:32.745Z,64.66
2022-10-19T12:31:01.186Z,64.98
2022-10-19T12:33:42.369Z,64.38
2022-10-19T12:36:19.639Z,65.16
2022-10-19T12:39:11.667Z,63.69
2022-10-19T12:42:03.638Z,64.60
2022-10-19T12:44:57.823Z,64.32
2022-10-19T12:47:26.022Z,64.17
2022-10-19T12:49:56.714Z,63.97
2022-10-19T12:52:48.057Z,64.03
2022-10-19T12:55:34.616Z,64.77
2022-10-19T12:58:19.897Z,64.40
2022-10-19T13:00:58.780Z,64.15
2022-10-19T13:03:30.081Z,64.24
2022-10-19T13:05:58.283Z,64.33
2022-10-19T13:08:34.039Z,63.99
2022-10-19T13:11:19.734Z,63.04
2022-10-19T13:13:55.101Z,62.58
2022-10-19T13:16:33.657Z,63.02
2022-10-19T13:19:00.213Z,63.12
2022-10-19T13:21:51.305Z,62.49
2022-10-19T13:24:23.813Z,63.09
2022-10-19T13:27:02.373Z,61.40
2022-10-19T13:29:41.031Z,62.39
2022-10-19T13:32:45.130Z,61.95
2022-10-19T13:35:24.817Z,62.35
2022-10-19T13:38:09.481Z,61.56
2022-10-19T13:40:56.220Z,61.82
2022-10-19T13:43:24.783Z,61.75
2022-10-19T13:46:02.755Z,61.97
2022-10-19T13:48:38.015Z,59.13
2022-10-19T13:51:38.117Z,58.63
2022-10-19T13:54:10.417Z,59.99
2022-10-19T13:56:55.541Z,59.87
2022-10-19T13:59:43.269Z,60.39
2022-10-19T14:02:34.365Z,60.01
2022-10-19T14:05:25.841Z,57.17
2022-10-19T14:08:03.297Z,54.29
2022-10-19T14:10:38.065Z,53.23
2022-10-19T14:13:14.229Z,50.50
2022-10-19T14:15:50.735Z,48.09
2022-10-19T14:18:34.436Z,45.42
2022-10-19T14:21:06.401Z,44.34
2022-10-19T14:23:34.919Z,44.08
2022-10-19T14:26:07.043Z,43.25
2022-10-19T14:28:33.724Z,42.93
2022-10-19T14:31:04.974Z,40.90
2022-10-19T14:33:36.657Z,39.97
2022-10-19T14:36:03.532Z,40.64
2022-10-19T14:38:36.685Z,39.19
2022-10-19T14:41:05.337Z,40.07
2022-10-19T14:43:34.230Z,40.78
2022-10-19T14:46:06.771Z,39.35
2022-10-19T14:48:34.829Z,39.45
2022-10-19T14:51:02.418Z,40.06
2022-10-19T14:54:13.447Z,39.65
2022-10-19T14:56:50.617Z,39.93
2022-10-19T14:59:24.581Z,41.38
2022-10-19T15:01:53.110Z,41.01
2022-10-19T15:04:29.928Z,39.05
2022-10-19T15:06:57.070Z,40.71
2022-10-19T15:09:37.798Z,39.06
2022-10-19T15:12:16.481Z,40.98
2022-10-19T15:14:43.285Z,43.27
2022-10-19T15:17:32.632Z,44.77
2022-10-19T15:20:01.133Z,46.08
2022-10-19T15:22:31.027Z,46.73
2022-10-19T15:25:06.520Z,45.95
2022-10-19T15:27:36.745Z,45.52
2022-10-19T15:30:18.399Z,45.09
2022-10-19T15:33:09.637Z,46.67
2022-10-19T15:35:38.385Z,48.85
2022-10-19T15:38:13.669Z,51.39
2022-10-19T15:40:42.309Z,52.91
2022-10-19T15:43:30.546Z,55.89
2022-10-19T15:45:59.841Z,55.87
2022-10-19T15:48:39.922Z,57.30
2022-10-19T15:51:26.295Z,58.64
2022-10-19T15:53:53.792Z,58.86
2022-10-19T15:56:21.353Z,59.13
2022-10-19T15:58:54.986Z,60.57
2022-10-19T16:01:26.350Z,60.82
2022-10-19T16:03:53.644Z,61.15
2022-10-19T16:06:22.409Z,61.46
2022-10-19T16:08:51.048Z,61.60
2022-10-19T16:11:19.492Z,62.10
2022-10-19T16:13:45.976Z,62.47
2022-10-19T16:16:18.313Z,63.06
2022-10-19T16:18:44.779Z,64.20
2022-10-19T16:21:11.214Z,64.17
2022-10-19T16:23:41.826Z,64.26
2022-10-19T16:26:08.718Z,64.68
2022-10-19T16:28:35.964Z,65.10
2022-10-19T16:31:02.642Z,65.69
2022-10-19T16:33:29.041Z,65.31
2022-10-19T16:35:55.468Z,66.36
2022-10-19T16:38:21.921Z,66.36
2022-10-19T16:40:48.502Z,66.53
2022-10-19T16:43:14.884Z,66.66
2022-10-19T16:45:44.358Z,66.80
2022-10-19T16:48:13.898Z,67.48
2022-10-19T16:50:40.440Z,68.07
2022-10-19T16:53:12.170Z,68.54
2022-10-19T16:55:42.454Z,69.01
2022-10-19T16:58:08.860Z,69.98
2022-10-19T17:00:35.922Z,70.22
2022-10-19T17:03:02.352Z,70.10
2022-10-19T17:05:28.926Z,70.08
2022-10-19T17:07:55.307Z,70.37
2022-10-19T17:10:21.751Z,70.58
2022-10-19T17:15:44.615Z,71.35
2022-10-19T17:18:01.046Z,71.82
2022-10-19T17:20:27.415Z,71.42
2022-10-19T17:22:53.797Z,71.98
2022-10-19T17:25:20.174Z,72.42
2022-10-19T17:27:50.676Z,73.14
2022-10-19T17:30:17.299Z,73.22
2022-10-19T17:32:43.757Z,73.58
2022-10-19T17:35:10.312Z,74.03
2022-10-19T17:37:37.105Z,73.91
2022-10-19T17:40:04.151Z,74.05
2022-10-19T17:42:31.050Z,74.31
2022-10-19T17:44:57.681Z,74.73
2022-10-19T17:47:26.482Z,74.71
2022-10-19T17:49:52.925Z,75.15
2022-10-19T17:52:19.349Z,74.86
2022-10-19T17:54:54.554Z,75.20
2022-10-19T17:57:32.576Z,75.39
2022-10-19T17:59:59.183Z,75.55
2022-10-19T18:02:25.694Z,75.05
2022-10-19T18:04:52.113Z,74.93
2022-10-19T18:07:18.733Z,75.24
2022-10-19T18:09:45.215Z,75.34
2022-10-19T18:12:13.346Z,74.96
2022-10-19T18:14:40.216Z,74.71
2022-10-19T18:17:06.629Z,74.91
2022-10-19T18:19:33.029Z,74.60
2022-10-19T18:21:59.409Z,74.90
2022-10-19T18:24:26.388Z,75.29
2022-10-19T18:26:52.815Z,75.54
2022-10-19T18:29:24.285Z,76.27
2022-10-19T18:31:52.206Z,76.27
2022-10-19T18:34:21.223Z,76.93
2022-10-19T18:36:48.354Z,76.89
2022-10-19T18:39:15.000Z,77.20
2022-10-19T18:41:41.779Z,76.90
2022-10-19T18:44:08.812Z,77.30
2022-10-19T18:46:36.639Z,77.10
2022-10-19T18:49:05.222Z,76.68
2022-10-19T18:51:32.076Z,76.87
2022-10-19T18:54:01.125Z,76.98
2022-10-19T18:56:29.263Z,77.40
2022-10-19T18:58:56.627Z,77.85
2022-10-19T19:01:28.110Z,77.20
2022-10-19T19:03:56.694Z,77.16
2022-10-19T19:06:29.613Z,77.36
2022-10-19T19:09:00.388Z,77.26
2022-10-19T19:11:34.309Z,77.47
2022-10-19T19:14:06.551Z,77.46
2022-10-19T19:16:34.823Z,77.38
2022-10-19T19:19:01.224Z,77.47
2022-10-19T19:21:29.427Z,77.62
2022-10-19T19:23:58.721Z,77.75
2022-10-19T19:26:27.713Z,77.54
2022-10-19T19:28:54.221Z,78.15
2022-10-19T19:31:20.650Z,77.91
2022-10-19T19:33:47.659Z,77.66
2022-10-19T19:36:15.869Z,77.79
2022-10-19T19:38:42.838Z,77.77
2022-10-19T19:41:12.035Z,77.91
2022-10-19T19:43:39.172Z,77.74
2022-10-19T19:46:09.395Z,77.66
2022-10-19T19:48:39.373Z,77.38
2022-10-19T19:51:08.764Z,77.28
2022-10-19T19:53:37.969Z,77.50
2022-10-19T19:56:06.283Z,77.51
2022-10-19T19:58:32.675Z,77.61
2022-10-19T20:00:59.064Z,78.20
2022-10-19T20:03:25.477Z,77.75
2022-10-19T20:05:51.895Z,77.80
2022-10-19T20:08:18.291Z,77.41
2022-10-19T20:10:44.731Z,77.71
2022-10-19T20:13:11.183Z,78.34
2022-10-19T20:15:38.652Z,77.96
2022-10-19T20:18:05.609Z,77.63
2022-10-19T20:20:32.134Z,78.38
2022-10-19T20:22:58.636Z,77.84
2022-10-19T20:25:25.074Z,78.30
2022-10-19T20:27:52.518Z,78.03
2022-10-19T20:30:18.983Z,78.51
2022-10-19T20:32:45.374Z,78.59
2022-10-19T20:35:11.792Z,78.42
2022-10-19T20:37:38.278Z,78.31
2022-10-19T20:40:08.593Z,78.75
2022-10-19T20:42:35.638Z,78.94
2022-10-19T20:45:02.269Z,79.15
2022-10-19T20:47:28.747Z,79.04
2022-10-19T20:49:55.159Z,78.97
2022-10-19T20:52:21.672Z,79.87
2022-10-19T20:54:48.628Z,79.85
2022-10-19T20:57:15.274Z,79.80
2022-10-19T20:59:43.701Z,80.13
2022-10-19T21:02:10.689Z,79.63
2022-10-19T21:04:37.229Z,79.71
2022-10-19T21:07:04.895Z,79.95
2022-10-19T21:09:31.462Z,79.83
2022-10-19T21:11:58.102Z,80.09
2022-10-19T21:14:28.388Z,79.94
2022-10-19T21:16:59.370Z,80.19
2022-10-19T21:19:28.281Z,80.03
2022-10-19T21:21:57.717Z,80.02
2022-10-19T21:24:27.312Z,79.75
2022-10-19T21:26:54.157Z,80.08
2022-10-19T21:29:20.727Z,80.37
2022-10-19T21:31:49.294Z,80.32
2022-10-19T21:34:27.577Z,80.46
2022-10-19T21:36:54.188Z,80.49
2022-10-19T21:39:20.995Z,80.39
2022-10-19T21:41:47.849Z,80.35
2022-10-19T21:44:15.079Z,80.88
2022-10-19T21:46:43.477Z,80.83
2022-10-19T21:49:12.943Z,81.00
2022-10-19T21:51:44.981Z,80.80
2022-10-19T21:54:13.816Z,81.03
2022-10-19T21:56:40.243Z,81.07
2022-10-19T21:59:06.764Z,81.21
2022-10-19T22:01:37.319Z,81.21
2022-10-19T22:04:08.395Z,81.22
2022-10-19T22:06:36.182Z,81.14
2022-10-19T22:09:05.135Z,81.29
2022-10-19T22:11:31.653Z,81.73
2022-10-19T22:13:59.902Z,81.40
2022-10-19T22:16:28.174Z,81.70
2022-10-19T22:18:55.302Z,82.17
2022-10-19T22:21:25.361Z,81.96
2022-10-19T22:23:56.115Z,81.69
2022-10-19T22:26:27.777Z,81.49
2022-10-19T22:28:58.682Z,81.59
2022-10-19T22:31:26.221Z,81.99
2022-10-19T22:33:52.659Z,81.92
2022-10-19T22:36:19.171Z,81.71
2022-10-19T22:38:45.788Z,81.87
2022-10-19T22:42:05.416Z,82.25
2022-10-19T22:44:31.836Z,82.29
2022-10-19T22:46:58.727Z,82.27
2022-10-19T22:49:25.100Z,82.13
2022-10-19T22:51:51.550Z,82.21
2022-10-19T22:54:17.909Z,82.83
2022-10-19T22:56:44.420Z,82.61
2022-10-19T22:59:13.077Z,82.93
2022-10-19T23:01:39.479Z,82.94
2022-10-19T23:04:05.901Z,83.21
2022-10-19T23:06:32.431Z,83.18
2022-10-19T23:08:58.841Z,83.09
2022-10-19T23:11:25.284Z,83.26
2022-10-19T23:13:51.960Z,83.17
2022-10-19T23:16:18.484Z,83.24
2022-10-19T23:18:45.101Z,83.29
2022-10-19T23:21:12.563Z,83.50
2022-10-19T23:23:39.275Z,83.81
2022-10-19T23:26:12.154Z,83.60
2022-10-19T23:28:40.202Z,83.75
2022-10-19T23:31:11.151Z,83.64
2022-10-19T23:33:37.657Z,84.10
2022-10-19T23:36:10.134Z,84.22
2022-10-19T23:38:36.742Z,84.11
2022-10-19T23:41:03.612Z,84.14
2022-10-19T23:43:30.128Z,83.95
2022-10-19T23:45:56.558Z,84.15
2022-10-19T23:48:22.931Z,84.06
2022-10-19T23:51:00.012Z,83.82
2022-10-19T23:53:27.531Z,84.09
2022-10-19T23:56:05.963Z,83.99
2022-10-19T23:58:32.932Z,84.17
